sensor_id;sensor_type;location;lat;lon;timestamp;pressure;altitude;pressure_sealevel;temperature;humidity
55604;BME280;41468;48.838;9.330;2023-08-20T00:01:28;98616.13;;;23.57;99.67
55604;BME280;41468;48.838;9.330;2023-08-20T00:04:01;98617.66;;;23.58;98.71
55604;BME280;41468;48.838;9.330;2023-08-20T00:06:29;98618.56;;;23.55;99.13
55604;BME280;41468;48.838;9.330;2023-08-20T00:08:56;98619.59;;;23.48;99.76
55604;BME280;41468;48.838;9.330;2023-08-20T00:11:22;98623.38;;;23.42;99.39
55604;BME280;41468;48.838;9.330;2023-08-20T00:13:49;98619.13;;;23.37;99.85
55604;BME280;41468;48.838;9.330;2023-08-20T00:40:35;98638.97;;;23.39;99.97
55604;BME280;41468;48.838;9.330;2023-08-20T00:43:08;98633.97;;;23.34;100.00
55604;BME280;41468;48.838;9.330;2023-08-20T00:45:41;98636.41;;;23.32;100.00
55604;BME280;41468;48.838;9.330;2023-08-20T00:48:15;98641.75;;;23.26;100.00
55604;BME280;41468;48.838;9.330;2023-08-20T00:50:49;98631.16;;;23.21;100.00
55604;BME280;41468;48.838;9.330;2023-08-20T00:53:22;98636.31;;;23.23;100.00
55604;BME280;41468;48.838;9.330;2023-08-20T00:55:55;98640.97;;;23.13;100.00
55604;BME280;41468;48.838;9.330;2023-08-20T00:58:28;98649.31;;;23.13;100.00
55604;BME280;41468;48.838;9.330;2023-08-20T01:01:01;98636.19;;;23.01;100.00
55604;BME280;41468;48.838;9.330;2023-08-20T01:03:40;98644.28;;;22.95;100.00
55604;BME280;41468;48.838;9.330;2023-08-20T01:06:21;98633.84;;;22.99;100.00
55604;BME280;41468;48.838;9.330;2023-08-20T01:09:06;98640.16;;;22.87;100.00
55604;BME280;41468;48.838;9.330;2023-08-20T01:11:41;98641.34;;;22.86;100.00
55604;BME280;41468;48.838;9.330;2023-08-20T01:14:15;98636.34;;;22.93;100.00
55604;BME280;41468;48.838;9.330;2023-08-20T01:16:42;98642.03;;;22.90;100.00
55604;BME280;41468;48.838;9.330;2023-08-20T01:19:13;98646.91;;;22.86;100.00
55604;BME280;41468;48.838;9.330;2023-08-20T01:22:21;98653.38;;;22.83;100.00
55604;BME280;41468;48.838;9.330;2023-08-20T01:30:14;98649.13;;;22.78;100.00
55604;BME280;41468;48.838;9.330;2023-08-20T01:43:10;98657.78;;;22.67;100.00
55604;BME280;41468;48.838;9.330;2023-08-20T01:45:37;98650.56;;;22.70;100.00
55604;BME280;41468;48.838;9.330;2023-08-20T01:48:04;98655.47;;;22.66;100.00
55604;BME280;41468;48.838;9.330;2023-08-20T01:50:33;98652.81;;;22.75;100.00
55604;BME280;41468;48.838;9.330;2023-08-20T01:53:02;98653.28;;;22.86;100.00
55604;BME280;41468;48.838;9.330;2023-08-20T01:55:29;98650.81;;;22.88;100.00
55604;BME280;41468;48.838;9.330;2023-08-20T01:57:58;98654.97;;;22.84;100.00
55604;BME280;41468;48.838;9.330;2023-08-20T02:00:25;98654.50;;;22.85;100.00
55604;BME280;41468;48.838;9.330;2023-08-20T02:02:52;98648.03;;;22.76;100.00
55604;BME280;41468;48.838;9.330;2023-08-20T02:05:19;98656.94;;;22.70;100.00
55604;BME280;41468;48.838;9.330;2023-08-20T02:07:46;98654.47;;;22.72;100.00
55604;BME280;41468;48.838;9.330;2023-08-20T02:10:13;98655.34;;;22.69;100.00
55604;BME280;41468;48.838;9.330;2023-08-20T02:12:41;98652.47;;;22.73;100.00
55604;BME280;41468;48.838;9.330;2023-08-20T02:15:08;98663.16;;;22.75;100.00
55604;BME280;41468;48.838;9.330;2023-08-20T02:17:35;98654.34;;;22.63;100.00
55604;BME280;41468;48.838;9.330;2023-08-20T02:20:03;98665.13;;;22.61;100.00
55604;BME280;41468;48.838;9.330;2023-08-20T02:22:31;98663.13;;;22.62;100.00
55604;BME280;41468;48.838;9.330;2023-08-20T02:24:57;98665.06;;;22.48;100.00
55604;BME280;41468;48.838;9.330;2023-08-20T02:27:24;98664.94;;;22.39;100.00
55604;BME280;41468;48.838;9.330;2023-08-20T02:29:51;98669.72;;;22.39;100.00
55604;BME280;41468;48.838;9.330;2023-08-20T02:32:18;98669.81;;;22.35;100.00
55604;BME280;41468;48.838;9.330;2023-08-20T02:34:50;98676.06;;;22.39;100.00
55604;BME280;41468;48.838;9.330;2023-08-20T02:37:17;98675.38;;;22.35;100.00
55604;BME280;41468;48.838;9.330;2023-08-20T02:39:44;98662.03;;;22.30;100.00
55604;BME280;41468;48.838;9.330;2023-08-20T02:42:10;98659.03;;;22.37;100.00
55604;BME280;41468;48.838;9.330;2023-08-20T02:44:37;98658.50;;;22.42;100.00
55604;BME280;41468;48.838;9.330;2023-08-20T02:47:04;98663.63;;;22.44;100.00
55604;BME280;41468;48.838;9.330;2023-08-20T02:49:31;98662.50;;;22.41;100.00
55604;BME280;41468;48.838;9.330;2023-08-20T02:51:58;98659.97;;;22.47;100.00
55604;BME280;41468;48.838;9.330;2023-08-20T02:54:24;98663.66;;;22.57;100.00
55604;BME280;41468;48.838;9.330;2023-08-20T02:56:52;98667.00;;;22.52;100.00
55604;BME280;41468;48.838;9.330;2023-08-20T02:59:19;98657.59;;;22.45;100.00
55604;BME280;41468;48.838;9.330;2023-08-20T03:01:46;98652.78;;;22.33;100.00
55604;BME280;41468;48.838;9.330;2023-08-20T03:04:13;98655.41;;;22.24;100.00
55604;BME280;41468;48.838;9.330;2023-08-20T03:06:40;98648.91;;;22.14;100.00
55604;BME280;41468;48.838;9.330;2023-08-20T03:09:07;98641.69;;;22.17;100.00
55604;BME280;41468;48.838;9.330;2023-08-20T03:11:34;98644.81;;;22.19;100.00
55604;BME280;41468;48.838;9.330;2023-08-20T03:14:00;98643.66;;;22.33;100.00
55604;BME280;41468;48.838;9.330;2023-08-20T03:16:27;98640.44;;;22.34;100.00
55604;BME280;41468;48.838;9.330;2023-08-20T03:18:54;98628.06;;;22.35;100.00
55604;BME280;41468;48.838;9.330;2023-08-20T03:21:21;98627.22;;;22.38;100.00
55604;BME280;41468;48.838;9.330;2023-08-20T03:23:47;98639.06;;;22.26;100.00
55604;BME280;41468;48.838;9.330;2023-08-20T03:26:14;98634.41;;;22.06;100.00
55604;BME280;41468;48.838;9.330;2023-08-20T03:28:41;98641.38;;;21.98;100.00
55604;BME280;41468;48.838;9.330;2023-08-20T03:31:07;98645.94;;;22.05;100.00
55604;BME280;41468;48.838;9.330;2023-08-20T03:33:34;98653.00;;;21.93;100.00
55604;BME280;41468;48.838;9.330;2023-08-20T03:36:01;98652.66;;;21.91;100.00
55604;BME280;41468;48.838;9.330;2023-08-20T03:38:28;98655.19;;;21.86;100.00
55604;BME280;41468;48.838;9.330;2023-08-20T03:40:55;98660.84;;;21.82;100.00
55604;BME280;41468;48.838;9.330;2023-08-20T03:43:22;98669.84;;;21.86;100.00
55604;BME280;41468;48.838;9.330;2023-08-20T03:45:53;98659.50;;;21.87;100.00
55604;BME280;41468;48.838;9.330;2023-08-20T03:48:19;98666.41;;;21.82;100.00
55604;BME280;41468;48.838;9.330;2023-08-20T03:50:47;98670.88;;;21.76;100.00
55604;BME280;41468;48.838;9.330;2023-08-20T03:53:14;98662.22;;;21.74;100.00
55604;BME280;41468;48.838;9.330;2023-08-20T03:55:41;98653.44;;;21.75;100.00
55604;BME280;41468;48.838;9.330;2023-08-20T03:58:19;98649.53;;;21.73;100.00
55604;BME280;41468;48.838;9.330;2023-08-20T04:00:46;98649.88;;;21.75;100.00
55604;BME280;41468;48.838;9.330;2023-08-20T04:03:12;98638.50;;;21.86;100.00
55604;BME280;41468;48.838;9.330;2023-08-20T04:05:40;98649.44;;;21.93;100.00
55604;BME280;41468;48.838;9.330;2023-08-20T04:08:07;98647.97;;;21.88;100.00
55604;BME280;41468;48.838;9.330;2023-08-20T04:10:34;98651.44;;;21.92;100.00
55604;BME280;41468;48.838;9.330;2023-08-20T04:13:01;98656.66;;;21.90;100.00
55604;BME280;41468;48.838;9.330;2023-08-20T04:15:28;98656.72;;;21.87;100.00
55604;BME280;41468;48.838;9.330;2023-08-20T04:17:55;98657.19;;;21.85;100.00
55604;BME280;41468;48.838;9.330;2023-08-20T04:20:22;98669.09;;;21.69;100.00
55604;BME280;41468;48.838;9.330;2023-08-20T04:22:49;98674.75;;;21.66;100.00
55604;BME280;41468;48.838;9.330;2023-08-20T04:25:16;98671.84;;;21.53;100.00
55604;BME280;41468;48.838;9.330;2023-08-20T04:27:43;98675.41;;;21.53;100.00
55604;BME280;41468;48.838;9.330;2023-08-20T04:30:10;98670.28;;;21.52;100.00
55604;BME280;41468;48.838;9.330;2023-08-20T04:32:37;98670.38;;;21.48;100.00
55604;BME280;41468;48.838;9.330;2023-08-20T04:35:04;98667.84;;;21.54;100.00
55604;BME280;41468;48.838;9.330;2023-08-20T04:37:31;98664.66;;;21.55;100.00
55604;BME280;41468;48.838;9.330;2023-08-20T04:39:58;98667.94;;;21.67;100.00
55604;BME280;41468;48.838;9.330;2023-08-20T04:42:25;98660.28;;;21.54;100.00
55604;BME280;41468;48.838;9.330;2023-08-20T04:44:52;98667.22;;;21.46;100.00
55604;BME280;41468;48.838;9.330;2023-08-20T04:47:19;98662.91;;;21.45;100.00
55604;BME280;41468;48.838;9.330;2023-08-20T04:49:46;98669.50;;;21.51;100.00
55604;BME280;41468;48.838;9.330;2023-08-20T04:52:12;98678.28;;;21.50;100.00
55604;BME280;41468;48.838;9.330;2023-08-20T04:54:39;98684.47;;;21.57;100.00
55604;BME280;41468;48.838;9.330;2023-08-20T04:57:06;98684.25;;;21.48;100.00
55604;BME280;41468;48.838;9.330;2023-08-20T04:59:33;98688.63;;;21.66;100.00
55604;BME280;41468;48.838;9.330;2023-08-20T05:02:05;98692.44;;;21.72;100.00
55604;BME280;41468;48.838;9.330;2023-08-20T05:04:32;98694.72;;;21.77;100.00
55604;BME280;41468;48.838;9.330;2023-08-20T05:06:59;98698.34;;;21.90;100.00
55604;BME280;41468;48.838;9.330;2023-08-20T05:09:26;98696.97;;;21.82;100.00
55604;BME280;41468;48.838;9.330;2023-08-20T05:11:52;98691.41;;;21.82;100.00
55604;BME280;41468;48.838;9.330;2023-08-20T05:14:19;98695.13;;;21.75;100.00
55604;BME280;41468;48.838;9.330;2023-08-20T05:16:46;98707.13;;;21.72;100.00
55604;BME280;41468;48.838;9.330;2023-08-20T05:19:13;98697.50;;;21.77;100.00
55604;BME280;41468;48.838;9.330;2023-08-20T05:21:39;98698.25;;;21.77;100.00
55604;BME280;41468;48.838;9.330;2023-08-20T05:24:06;98695.31;;;21.84;100.00
55604;BME280;41468;48.838;9.330;2023-08-20T05:26:34;98698.53;;;21.83;100.00
55604;BME280;41468;48.838;9.330;2023-08-20T05:29:01;98690.34;;;21.92;100.00
55604;BME280;41468;48.838;9.330;2023-08-20T05:31:27;98698.63;;;21.96;100.00
55604;BME280;41468;48.838;9.330;2023-08-20T05:33:54;98689.66;;;21.88;100.00
55604;BME280;41468;48.838;9.330;2023-08-20T05:36:23;98685.25;;;21.91;100.00
55604;BME280;41468;48.838;9.330;2023-08-20T05:38:49;98692.69;;;21.94;100.00
55604;BME280;41468;48.838;9.330;2023-08-20T05:41:16;98688.19;;;21.83;100.00
55604;BME280;41468;48.838;9.330;2023-08-20T05:43:43;98690.59;;;21.81;100.00
55604;BME280;41468;48.838;9.330;2023-08-20T05:46:10;98699.50;;;21.76;100.00
55604;BME280;41468;48.838;9.330;2023-08-20T05:48:37;98704.44;;;21.85;100.00
55604;BME280;41468;48.838;9.330;2023-08-20T05:51:03;98702.00;;;22.03;100.00
55604;BME280;41468;48.838;9.330;2023-08-20T05:53:30;98682.97;;;22.18;100.00
55604;BME280;41468;48.838;9.330;2023-08-20T05:55:57;98677.66;;;22.24;100.00
55604;BME280;41468;48.838;9.330;2023-08-20T05:58:24;98697.38;;;22.30;100.00
55604;BME280;41468;48.838;9.330;2023-08-20T06:00:50;98709.56;;;22.36;100.00
55604;BME280;41468;48.838;9.330;2023-08-20T06:03:17;98715.72;;;22.43;100.00
55604;BME280;41468;48.838;9.330;2023-08-20T06:05:44;98722.72;;;22.48;100.00
55604;BME280;41468;48.838;9.330;2023-08-20T06:08:11;98725.16;;;22.62;100.00
55604;BME280;41468;48.838;9.330;2023-08-20T06:10:38;98723.31;;;22.85;100.00
55604;BME280;41468;48.838;9.330;2023-08-20T06:13:04;98702.13;;;22.75;100.00
55604;BME280;41468;48.838;9.330;2023-08-20T06:15:31;98712.78;;;22.92;100.00
55604;BME280;41468;48.838;9.330;2023-08-20T06:17:58;98707.00;;;23.00;100.00
55604;BME280;41468;48.838;9.330;2023-08-20T06:20:25;98713.84;;;23.11;100.00
55604;BME280;41468;48.838;9.330;2023-08-20T06:22:51;98714.41;;;23.32;99.81
55604;BME280;41468;48.838;9.330;2023-08-20T06:25:18;98723.13;;;23.47;98.46
55604;BME280;41468;48.838;9.330;2023-08-20T06:27:49;98731.72;;;23.52;98.18
55604;BME280;41468;48.838;9.330;2023-08-20T06:30:16;98726.72;;;23.60;97.96
55604;BME280;41468;48.838;9.330;2023-08-20T06:32:44;98725.38;;;23.77;96.22
55604;BME280;41468;48.838;9.330;2023-08-20T06:35:21;98729.28;;;23.93;96.54
55604;BME280;41468;48.838;9.330;2023-08-20T06:37:58;98727.13;;;24.10;96.33
55604;BME280;41468;48.838;9.330;2023-08-20T06:40:36;98736.59;;;24.25;95.74
55604;BME280;41468;48.838;9.330;2023-08-20T06:43:03;98737.00;;;24.36;94.40
55604;BME280;41468;48.838;9.330;2023-08-20T06:45:30;98736.91;;;24.40;93.52
55604;BME280;41468;48.838;9.330;2023-08-20T06:47:57;98742.25;;;24.47;93.46
55604;BME280;41468;48.838;9.330;2023-08-20T06:50:24;98748.63;;;24.48;93.55
55604;BME280;41468;48.838;9.330;2023-08-20T06:52:51;98739.47;;;24.47;94.71
55604;BME280;41468;48.838;9.330;2023-08-20T06:55:18;98734.69;;;24.48;95.71
55604;BME280;41468;48.838;9.330;2023-08-20T06:57:44;98745.19;;;24.65;93.62
55604;BME280;41468;48.838;9.330;2023-08-20T07:00:11;98745.97;;;24.66;94.29
55604;BME280;41468;48.838;9.330;2023-08-20T07:02:38;98740.59;;;24.72;94.45
55604;BME280;41468;48.838;9.330;2023-08-20T07:05:05;98731.78;;;24.95;92.17
55604;BME280;41468;48.838;9.330;2023-08-20T07:07:32;98734.69;;;25.13;89.37
55604;BME280;41468;48.838;9.330;2023-08-20T07:09:59;98732.81;;;25.32;89.30
55604;BME280;41468;48.838;9.330;2023-08-20T07:12:26;98743.63;;;25.52;89.65
55604;BME280;41468;48.838;9.330;2023-08-20T07:14:53;98743.59;;;25.43;88.13
55604;BME280;41468;48.838;9.330;2023-08-20T07:17:19;98748.00;;;25.63;89.33
55604;BME280;41468;48.838;9.330;2023-08-20T07:19:46;98747.53;;;25.86;89.55
55604;BME280;41468;48.838;9.330;2023-08-20T07:22:13;98748.22;;;26.18;88.86
55604;BME280;41468;48.838;9.330;2023-08-20T07:24:40;98751.84;;;26.37;85.68
55604;BME280;41468;48.838;9.330;2023-08-20T07:27:07;98753.38;;;26.38;83.93
55604;BME280;41468;48.838;9.330;2023-08-20T07:29:39;98758.09;;;26.59;84.84
55604;BME280;41468;48.838;9.330;2023-08-20T07:32:06;98761.06;;;26.65;83.43
55604;BME280;41468;48.838;9.330;2023-08-20T07:34:33;98763.25;;;26.88;81.91
55604;BME280;41468;48.838;9.330;2023-08-20T07:37:00;98767.44;;;27.02;80.73
55604;BME280;41468;48.838;9.330;2023-08-20T07:39:28;98771.31;;;27.23;80.41
55604;BME280;41468;48.838;9.330;2023-08-20T07:41:55;98776.28;;;27.38;79.35
55604;BME280;41468;48.838;9.330;2023-08-20T07:44:21;98773.16;;;27.45;80.40
55604;BME280;41468;48.838;9.330;2023-08-20T07:46:48;98769.97;;;27.70;76.63
55604;BME280;41468;48.838;9.330;2023-08-20T07:49:15;98774.31;;;27.71;76.36
55604;BME280;41468;48.838;9.330;2023-08-20T07:51:42;98775.44;;;27.65;76.39
55604;BME280;41468;48.838;9.330;2023-08-20T07:54:08;98780.88;;;27.59;77.05
55604;BME280;41468;48.838;9.330;2023-08-20T07:56:35;98782.41;;;27.69;77.09
55604;BME280;41468;48.838;9.330;2023-08-20T07:59:02;98769.78;;;27.74;76.35
55604;BME280;41468;48.838;9.330;2023-08-20T08:01:29;98776.84;;;27.60;77.51
55604;BME280;41468;48.838;9.330;2023-08-20T08:03:56;98777.69;;;27.42;78.57
55604;BME280;41468;48.838;9.330;2023-08-20T08:06:23;98786.88;;;27.15;79.11
55604;BME280;41468;48.838;9.330;2023-08-20T08:09:36;98790.50;;;27.25;79.30
55604;BME280;41468;48.838;9.330;2023-08-20T08:12:02;98778.94;;;27.41;79.08
55604;BME280;41468;48.838;9.330;2023-08-20T08:14:40;98776.53;;;27.67;77.89
55604;BME280;41468;48.838;9.330;2023-08-20T08:17:07;98773.19;;;27.87;75.84
55604;BME280;41468;48.838;9.330;2023-08-20T08:19:34;98783.13;;;27.97;75.20
55604;BME280;41468;48.838;9.330;2023-08-20T08:22:00;98789.72;;;28.18;74.47
55604;BME280;41468;48.838;9.330;2023-08-20T08:24:27;98785.72;;;28.34;73.55
55604;BME280;41468;48.838;9.330;2023-08-20T08:27:04;98786.84;;;28.28;75.16
55604;BME280;41468;48.838;9.330;2023-08-20T08:29:31;98784.06;;;28.28;72.82
55604;BME280;41468;48.838;9.330;2023-08-20T08:31:58;98784.94;;;28.34;73.58
55604;BME280;41468;48.838;9.330;2023-08-20T08:34:25;98788.59;;;28.25;73.45
55604;BME280;41468;48.838;9.330;2023-08-20T08:36:51;98784.13;;;28.42;73.27
55604;BME280;41468;48.838;9.330;2023-08-20T08:39:18;98781.75;;;28.50;72.86
55604;BME280;41468;48.838;9.330;2023-08-20T08:41:48;98792.50;;;28.76;71.05
55604;BME280;41468;48.838;9.330;2023-08-20T08:44:16;98781.38;;;28.81;71.40
55604;BME280;41468;48.838;9.330;2023-08-20T08:46:43;98783.63;;;28.92;70.40
55604;BME280;41468;48.838;9.330;2023-08-20T08:49:10;98781.41;;;28.96;71.07
55604;BME280;41468;48.838;9.330;2023-08-20T08:51:38;98780.38;;;29.09;70.17
55604;BME280;41468;48.838;9.330;2023-08-20T08:54:07;98785.91;;;29.18;69.25
55604;BME280;41468;48.838;9.330;2023-08-20T08:56:34;98784.66;;;29.19;68.59
55604;BME280;41468;48.838;9.330;2023-08-20T08:59:01;98782.22;;;29.41;68.26
55604;BME280;41468;48.838;9.330;2023-08-20T09:01:27;98780.56;;;29.49;66.90
55604;BME280;41468;48.838;9.330;2023-08-20T09:03:57;98785.47;;;29.64;67.40
55604;BME280;41468;48.838;9.330;2023-08-20T09:06:23;98785.50;;;29.84;66.34
55604;BME280;41468;48.838;9.330;2023-08-20T09:09:03;98784.72;;;29.99;64.52
55604;BME280;41468;48.838;9.330;2023-08-20T09:11:34;98781.16;;;30.19;65.38
55604;BME280;41468;48.838;9.330;2023-08-20T09:14:02;98785.44;;;30.29;64.71
55604;BME280;41468;48.838;9.330;2023-08-20T09:16:32;98781.16;;;30.19;65.43
55604;BME280;41468;48.838;9.330;2023-08-20T09:18:59;98784.31;;;30.06;66.27
55604;BME280;41468;48.838;9.330;2023-08-20T09:21:27;98785.56;;;30.05;65.89
55604;BME280;41468;48.838;9.330;2023-08-20T09:23:57;98783.00;;;30.22;65.50
55604;BME280;41468;48.838;9.330;2023-08-20T09:26:24;98783.69;;;30.31;64.43
55604;BME280;41468;48.838;9.330;2023-08-20T09:28:54;98780.72;;;30.41;65.58
55604;BME280;41468;48.838;9.330;2023-08-20T09:31:37;98795.31;;;30.39;65.16
55604;BME280;41468;48.838;9.330;2023-08-20T09:34:05;98787.28;;;30.52;65.89
55604;BME280;41468;48.838;9.330;2023-08-20T09:36:33;98782.97;;;30.57;65.02
55604;BME280;41468;48.838;9.330;2023-08-20T09:39:02;98788.31;;;30.34;64.34
55604;BME280;41468;48.838;9.330;2023-08-20T09:41:29;98790.66;;;30.56;64.71
55604;BME280;41468;48.838;9.330;2023-08-20T09:43:58;98789.59;;;30.54;65.38
55604;BME280;41468;48.838;9.330;2023-08-20T09:46:27;98790.75;;;30.83;63.62
55604;BME280;41468;48.838;9.330;2023-08-20T09:48:56;98782.81;;;31.07;63.57
55604;BME280;41468;48.838;9.330;2023-08-20T09:51:27;98787.69;;;31.07;62.89
55604;BME280;41468;48.838;9.330;2023-08-20T09:54:20;98783.03;;;31.03;61.30
55604;BME280;41468;48.838;9.330;2023-08-20T09:56:54;98777.78;;;31.17;60.01
55604;BME280;41468;48.838;9.330;2023-08-20T09:59:25;98778.22;;;31.36;59.72
55604;BME280;41468;48.838;9.330;2023-08-20T10:01:52;98777.41;;;31.56;58.06
55604;BME280;41468;48.838;9.330;2023-08-20T10:04:21;98780.94;;;31.51;58.24
55604;BME280;41468;48.838;9.330;2023-08-20T10:06:49;98781.72;;;31.51;58.30
55604;BME280;41468;48.838;9.330;2023-08-20T10:09:17;98778.78;;;31.40;57.49
55604;BME280;41468;48.838;9.330;2023-08-20T10:11:44;98779.78;;;31.63;55.84
55604;BME280;41468;48.838;9.330;2023-08-20T10:14:13;98777.72;;;31.63;57.17
55604;BME280;41468;48.838;9.330;2023-08-20T10:16:40;98772.16;;;31.75;57.04
55604;BME280;41468;48.838;9.330;2023-08-20T10:19:06;98767.97;;;31.64;56.62
55604;BME280;41468;48.838;9.330;2023-08-20T10:21:33;98772.91;;;31.75;55.16
55604;BME280;41468;48.838;9.330;2023-08-20T10:24:05;98771.88;;;31.73;55.76
55604;BME280;41468;48.838;9.330;2023-08-20T10:26:35;98777.63;;;31.84;55.58
55604;BME280;41468;48.838;9.330;2023-08-20T10:32:11;98764.72;;;32.09;53.76
55604;BME280;41468;48.838;9.330;2023-08-20T10:34:43;98770.91;;;32.19;54.98
55604;BME280;41468;48.838;9.330;2023-08-20T10:37:25;98762.66;;;32.52;55.71
55604;BME280;41468;48.838;9.330;2023-08-20T10:39:55;98762.66;;;32.58;54.31
55604;BME280;41468;48.838;9.330;2023-08-20T10:42:26;98768.88;;;32.62;53.48
55604;BME280;41468;48.838;9.330;2023-08-20T10:45:05;98763.19;;;32.56;53.37
55604;BME280;41468;48.838;9.330;2023-08-20T10:47:36;98771.81;;;32.42;54.71
55604;BME280;41468;48.838;9.330;2023-08-20T10:50:04;98763.25;;;32.79;53.76
55604;BME280;41468;48.838;9.330;2023-08-20T10:52:31;98762.78;;;32.86;52.97
55604;BME280;41468;48.838;9.330;2023-08-20T10:54:58;98765.63;;;32.97;52.64
55604;BME280;41468;48.838;9.330;2023-08-20T10:57:33;98757.38;;;32.94;52.11
55604;BME280;41468;48.838;9.330;2023-08-20T11:00:03;98771.59;;;33.11;52.41
55604;BME280;41468;48.838;9.330;2023-08-20T11:02:37;98761.31;;;33.02;52.14
55604;BME280;41468;48.838;9.330;2023-08-20T11:05:16;98764.38;;;33.10;49.78
55604;BME280;41468;48.838;9.330;2023-08-20T11:07:45;98765.69;;;33.20;48.97
55604;BME280;41468;48.838;9.330;2023-08-20T11:10:16;98760.09;;;33.54;47.92
55604;BME280;41468;48.838;9.330;2023-08-20T11:12:46;98756.22;;;33.62;49.41
55604;BME280;41468;48.838;9.330;2023-08-20T11:15:13;98752.63;;;33.62;48.47
55604;BME280;41468;48.838;9.330;2023-08-20T11:17:46;98758.53;;;33.75;48.47
55604;BME280;41468;48.838;9.330;2023-08-20T11:20:17;98749.50;;;33.43;47.41
55604;BME280;41468;48.838;9.330;2023-08-20T11:22:44;98753.59;;;33.48;47.18
55604;BME280;41468;48.838;9.330;2023-08-20T11:25:12;98745.13;;;33.48;47.60
55604;BME280;41468;48.838;9.330;2023-08-20T11:27:42;98745.91;;;33.65;47.66
55604;BME280;41468;48.838;9.330;2023-08-20T11:30:14;98748.47;;;33.40;47.22
55604;BME280;41468;48.838;9.330;2023-08-20T11:32:41;98737.69;;;33.67;47.84
55604;BME280;41468;48.838;9.330;2023-08-20T11:35:09;98743.06;;;33.76;48.02
55604;BME280;41468;48.838;9.330;2023-08-20T11:37:36;98739.47;;;33.70;47.60
55604;BME280;41468;48.838;9.330;2023-08-20T11:40:10;98739.22;;;33.74;47.13
55604;BME280;41468;48.838;9.330;2023-08-20T11:42:37;98738.72;;;33.64;47.93
55604;BME280;41468;48.838;9.330;2023-08-20T11:45:04;98740.78;;;33.75;48.29
55604;BME280;41468;48.838;9.330;2023-08-20T11:47:38;98740.72;;;33.97;46.85
55604;BME280;41468;48.838;9.330;2023-08-20T11:50:05;98747.66;;;34.13;47.12
55604;BME280;41468;48.838;9.330;2023-08-20T11:52:33;98739.13;;;34.24;47.13
55604;BME280;41468;48.838;9.330;2023-08-20T11:55:00;98731.94;;;34.23;47.05
55604;BME280;41468;48.838;9.330;2023-08-20T11:57:30;98738.38;;;34.18;46.51
55604;BME280;41468;48.838;9.330;2023-08-20T12:00:04;98737.56;;;34.29;45.41
55604;BME280;41468;48.838;9.330;2023-08-20T12:02:31;98738.03;;;34.39;46.14
55604;BME280;41468;48.838;9.330;2023-08-20T12:05:06;98724.41;;;34.37;44.68
55604;BME280;41468;48.838;9.330;2023-08-20T12:07:33;98728.78;;;34.33;45.36
55604;BME280;41468;48.838;9.330;2023-08-20T12:10:18;98720.81;;;34.25;45.43
55604;BME280;41468;48.838;9.330;2023-08-20T12:12:45;98719.25;;;34.30;46.09
55604;BME280;41468;48.838;9.330;2023-08-20T12:15:15;98724.69;;;34.22;45.35
55604;BME280;41468;48.838;9.330;2023-08-20T12:17:42;98725.16;;;34.38;45.92
55604;BME280;41468;48.838;9.330;2023-08-20T12:20:13;98721.59;;;34.31;45.90
55604;BME280;41468;48.838;9.330;2023-08-20T12:22:40;98712.84;;;34.29;45.28
55604;BME280;41468;48.838;9.330;2023-08-20T12:25:07;98711.31;;;34.23;45.14
55604;BME280;41468;48.838;9.330;2023-08-20T12:27:34;98708.75;;;34.19;46.27
55604;BME280;41468;48.838;9.330;2023-08-20T12:30:01;98705.38;;;34.26;44.63
55604;BME280;41468;48.838;9.330;2023-08-20T12:32:28;98712.31;;;34.25;43.95
55604;BME280;41468;48.838;9.330;2023-08-20T12:34:55;98706.88;;;34.33;44.46
55604;BME280;41468;48.838;9.330;2023-08-20T12:37:22;98709.22;;;34.29;44.33
55604;BME280;41468;48.838;9.330;2023-08-20T12:39:49;98707.59;;;34.50;44.16
55604;BME280;41468;48.838;9.330;2023-08-20T12:42:16;98700.16;;;34.36;42.78
55604;BME280;41468;48.838;9.330;2023-08-20T12:44:42;98706.59;;;34.42;44.07
55604;BME280;41468;48.838;9.330;2023-08-20T12:47:09;98704.03;;;34.39;42.93
55604;BME280;41468;48.838;9.330;2023-08-20T12:49:36;98698.91;;;34.31;42.41
55604;BME280;41468;48.838;9.330;2023-08-20T12:52:03;98694.84;;;34.21;43.29
55604;BME280;41468;48.838;9.330;2023-08-20T12:54:30;98697.47;;;34.08;42.52
55604;BME280;41468;48.838;9.330;2023-08-20T12:56:57;98694.56;;;34.25;42.14
55604;BME280;41468;48.838;9.330;2023-08-20T12:59:23;98687.41;;;34.13;43.10
55604;BME280;41468;48.838;9.330;2023-08-20T13:01:52;98697.66;;;34.21;43.23
55604;BME280;41468;48.838;9.330;2023-08-20T13:04:19;98691.50;;;34.17;43.37
55604;BME280;41468;48.838;9.330;2023-08-20T13:06:46;98686.66;;;33.90;43.36
55604;BME280;41468;48.838;9.330;2023-08-20T13:09:14;98679.25;;;33.75;43.80
55604;BME280;41468;48.838;9.330;2023-08-20T13:11:42;98684.63;;;33.79;43.45
55604;BME280;41468;48.838;9.330;2023-08-20T13:14:11;98677.47;;;33.67;42.49
55604;BME280;41468;48.838;9.330;2023-08-20T13:16:38;98683.38;;;33.69;43.84
55604;BME280;41468;48.838;9.330;2023-08-20T13:19:05;98679.75;;;33.68;43.65
55604;BME280;41468;48.838;9.330;2023-08-20T13:21:32;98674.84;;;33.74;44.01
55604;BME280;41468;48.838;9.330;2023-08-20T13:23:59;98673.84;;;33.66;45.04
55604;BME280;41468;48.838;9.330;2023-08-20T13:26:26;98671.78;;;33.72;43.22
55604;BME280;41468;48.838;9.330;2023-08-20T13:28:53;98671.00;;;33.83;43.42
55604;BME280;41468;48.838;9.330;2023-08-20T13:31:20;98671.72;;;33.95;45.23
55604;BME280;41468;48.838;9.330;2023-08-20T13:33:46;98669.16;;;33.97;45.46
55604;BME280;41468;48.838;9.330;2023-08-20T13:36:13;98669.38;;;33.93;43.92
55604;BME280;41468;48.838;9.330;2023-08-20T13:38:40;98672.50;;;33.90;45.08
55604;BME280;41468;48.838;9.330;2023-08-20T13:41:07;98660.44;;;33.83;44.66
55604;BME280;41468;48.838;9.330;2023-08-20T13:43:34;98670.44;;;33.90;46.27
55604;BME280;41468;48.838;9.330;2023-08-20T13:46:00;98652.19;;;33.85;44.54